Flight Track Log - Related Links

Times and Time Zones

All times are in EDT time to prevent confusion due to time zone crossing. See the ASH2834 flight status page for this flight to view local times or setup timezone preferences in your user account.

Time Position Orientation Groundspeed Altitude Reporting Facility
EDT Latitude Longitude Course Direction KTS MPH feet Rate Location/Type
Mon 01:01:42 AM 33.4294 -112.0378 144° Southeast 172 198 2,100  Level Albuquerque Center
Mon 01:02:43 AM 33.4128 -112.0922 250° West 192 221 3,900 2,033 Climbing Albuquerque Center
Mon 01:03:43 AM 33.3833 -112.1653 244° Southwest 253 291 6,200 2,579 Climbing Albuquerque Center
Mon 01:04:44 AM 33.3119 -112.1422 165° South 279 321 9,100 2,508 Climbing Albuquerque Center
Mon 01:05:00 AM 32.9164 -111.9110 164° South  Level FlightAware Approximate
Mon 01:05:45 AM 33.2372 -112.1011 155° Southeast 295 339 11,300  Level Albuquerque Center
Mon 01:06:00 AM 32.8047 -111.8326 144° Southeast  Level FlightAware Approximate
Mon 01:06:45 AM 33.1469 -112.0517 155° Southeast 352 405 12,700  Level Albuquerque Center
Mon 01:07:46 AM 33.0481 -111.9975 155° Southeast 387 445 14,600 1,934 Climbing Albuquerque Center
Mon 01:08:46 AM 32.9442 -111.9397 155° Southeast 409 471 16,600 1,190 Climbing Albuquerque Center
Mon 01:09:47 AM 32.8392 -111.8694 151° Southeast 433 498 17,000 286 Climbing Albuquerque Center
Mon 01:10:31 AM 32.7453 -111.7931 146° Southeast 445 512 17,100 -98 Climbing Albuquerque Center
Mon 01:10:48 AM 32.7386 -111.7833 129° Southeast 445 512 16,900 -2,286 Descending Albuquerque Center
Mon 01:11:13 AM 32.6742 -111.7336 147° Southeast 441 507 15,500 -2,800 Descending Albuquerque Center
Mon 01:11:48 AM 32.6228 -111.6867 142° Southeast 426 490 14,100 -2,361 Descending Albuquerque Center
Mon 01:12:14 AM 32.5894 -111.6472 135° Southeast 416 479 13,100 -2,164 Descending Albuquerque Center
Mon 01:12:49 AM 32.5547 -111.5867 124° Southeast 403 464 11,900 -1,970 Descending Albuquerque Center
Mon 01:13:21 AM 32.5214 -111.5364 128° Southeast 388 447 10,900 -1,770 Descending Albuquerque Center
Mon 01:13:50 AM 32.4933 -111.4850 123° Southeast 387 445 10,100 -900 Descending Albuquerque Center
Mon 01:14:21 AM 32.4625 -111.4408 130° Southeast 353 406 10,000 -500 Descending Albuquerque Center
Mon 01:14:50 AM 32.4394 -111.3994 123° Southeast 340 391 9,600 -1,200 Descending Albuquerque Center
Mon 01:15:16 AM 32.4164 -111.3672 130° Southeast 303 349 8,900 -1,672 Descending Albuquerque Center
Mon 01:15:51 AM 32.3925 -111.3239 123° Southeast 295 339 7,900 -1,700 Descending Albuquerque Center
Mon 01:16:16 AM 32.3697 -111.2914 130° Southeast 291 335 7,200 -885 Descending Albuquerque Center
Mon 01:16:52 AM 32.3458 -111.2494 124° Southeast 287 330 7,000 -393 Descending Albuquerque Center
Mon 01:17:17 AM 32.3194 -111.2092 128° Southeast 287 330 6,800 -800 Descending Albuquerque Center
Mon 01:17:52 AM 32.2975 -111.1739 126° Southeast 286 329 6,200 -787 Descending Albuquerque Center
Mon 01:18:18 AM 32.2731 -111.1358 127° Southeast 284 327 6,000 -197 Descending Albuquerque Center
Mon 01:18:53 AM 32.2575 -111.1017 118° Southeast 275 316 6,000 -400 Level Albuquerque Center
Mon 01:19:18 AM 32.2336 -111.0758 138° Southeast 237 273 5,600 -1,082 Descending Albuquerque Center
Mon 01:19:54 AM 32.2153 -111.0453 125° Southeast 251 289 4,900 -1,279 Descending Albuquerque Center
Mon 01:20:19 AM 32.1875 -111.0253 149° Southeast 227 261 4,300 -1,000 Descending Albuquerque Center
Mon 01:20:54 AM 32.1722 -110.9986 124° Southeast 230 265 3,900 -800 Descending Albuquerque Center
Mon 01:21:19 AM 32.1536 -110.9842 147° Southeast 171 197 3,500 -960 Descending Albuquerque Center

Login

Don't have an account? Register now (free) for customized features, flight alerts, and more!